Detall de PIREP

Printer-friendly versionPDF version

[2013/07/14 07:33:00]
Flight IATA:CT3255
Pilot Number:012
Company ICAO:CAT
Aircraft Type:B752/E
PAX:180
Aircraft Registration:PAX
Departing Airport: LDZA
Destination Airport: LEPA
Alternate Airport:LEBL
Online: VATSIM
Route:KOTOR/M082F360 UT742 NAKIT UL615 AKADO UM196 LAGEN/M082F370 UM859 VAMTU UM984 DIVKO UN852 VERSO UL129 LUNIK
Flight Level:F370
No Slew and time accel
No pause
Crash detect
Detect pilot in Cockpit between each 30 and 45 minutes
07:33 Zero fuel Weight: 172495 Lbs, Fuel Weight: 25134 Lbs
07:33 VATSIM:LDZA 140700Z VRB02KT CAVOK 21/15 Q1019 NOSIG
07:33 VATSIM:LEPA 140700Z 00000KT CAVOK 26/16 Q1018 NOSIG
07:33 VOICE CATALONIAN
07:37 Parking Brakes off
07:41 Take-off
07:41 Take off Weight: 196705 Lbs
07:41 Wind: 356º @ 002 Knots Heading: 046º
07:41 POS N45º 44´ 28´´ E016º 03´ 58´´
07:41 Gear Up: 188 Knots
07:41 Flaps:2 at 188 Knots
07:41 Flaps:1 at 238 Knots
07:41 Flaps:0 at 239 Knots
07:56 Wind:280º@044 Knots Heading: 269º Ground Speed: 428 Knots Altitude 36112 ft
08:11 Wind:285º@040 Knots Heading: 255º Ground Speed: 433 Knots Altitude 36118 ft
08:26 Wind:285º@029 Knots Heading: 253º Ground Speed: 443 Knots Altitude 36151 ft
08:34 TOC
08:34 Fuel Weight: 15427 Lb
08:41 Wind:263º@037 Knots Heading: 231º Ground Speed: 440 Knots Altitude 37122 ft
08:56 Wind:252º@045 Knots Heading: 247º Ground Speed: 426 Knots Altitude 37116 ft
09:11 Wind:244º@050 Knots Heading: 194º Ground Speed: 440 Knots Altitude 36916 ft
09:11 TOD
09:11 Fuel Weight: 11160 Lb
09:26 Wind:233º@007 Knots Heading: 178º Ground Speed: 277 Knots Altitude 9845 ft
09:33 Flaps:1 at 183 Knots
09:35 Flaps:2 at 170 Knots
09:37 Flaps:3 at 156 Knots
09:37 Flaps:4 at 155 Knots
09:37 Gear Down: 152 Knots
09:37 Flaps:5 at 145 Knots
09:37 Flaps:6 at 132 Knots
09:41 Wind:291º@001 Knots Heading: 239º Ground Speed: 147 Knots Altitude 236 ft
09:41 TouchDown:Rate -166 ft/min Speed: 134 Knots
09:41 VATSIM:LEPA 140930Z 25004KT 190V320 CAVOK 32/12 Q1018 NOSIG
09:41 Land
09:41 Wind:312º@001 Knots
09:41 Heading: 238º
09:41 Flight Duration: 02:00
09:41 Landing Weight: 181197 Lbs
09:41 POS N39º 32´ 50´´ E002º 44´ 39´´
09:42 Parking brakes on
09:42 Block to Block Duration: 02:05
09:42 Final Fuel: 8615 Lbls
09:42 Spent Fuel: 16518 Lbls
09:42 Flight Length: 788 NM
09:42 TOD Land Length: 146 NM

Exportar CSV

Powered by Drupal - Modified by Danger4k